sensor_id;sensor_type;location;lat;lon;timestamp;temperature;humidity
8563;DHT22;16392;52.508;13.468;2024-02-21T00:01:38;8.30;99.90
8563;DHT22;16392;52.508;13.468;2024-02-21T00:04:05;8.30;99.90
8563;DHT22;16392;52.508;13.468;2024-02-21T00:06:31;8.40;99.90
8563;DHT22;16392;52.508;13.468;2024-02-21T00:08:58;8.30;99.90
8563;DHT22;16392;52.508;13.468;2024-02-21T00:11:25;8.30;99.90
8563;DHT22;16392;52.508;13.468;2024-02-21T00:13:52;8.40;99.90
8563;DHT22;16392;52.508;13.468;2024-02-21T00:16:19;8.40;99.90
8563;DHT22;16392;52.508;13.468;2024-02-21T00:18:47;8.40;99.90
8563;DHT22;16392;52.508;13.468;2024-02-21T00:21:14;8.40;99.90
8563;DHT22;16392;52.508;13.468;2024-02-21T00:23:44;8.40;99.90
8563;DHT22;16392;52.508;13.468;2024-02-21T00:26:11;8.40;99.90
8563;DHT22;16392;52.508;13.468;2024-02-21T00:28:45;8.40;99.90
8563;DHT22;16392;52.508;13.468;2024-02-21T00:31:18;8.30;99.90
8563;DHT22;16392;52.508;13.468;2024-02-21T00:33:46;8.30;99.90
8563;DHT22;16392;52.508;13.468;2024-02-21T00:36:13;8.30;99.90
8563;DHT22;16392;52.508;13.468;2024-02-21T00:38:40;8.30;99.90
8563;DHT22;16392;52.508;13.468;2024-02-21T00:41:07;8.30;99.90
8563;DHT22;16392;52.508;13.468;2024-02-21T00:43:33;8.30;99.90
8563;DHT22;16392;52.508;13.468;2024-02-21T00:46:00;8.30;99.90
8563;DHT22;16392;52.508;13.468;2024-02-21T00:48:27;8.30;99.90
8563;DHT22;16392;52.508;13.468;2024-02-21T00:50:56;8.30;99.90
8563;DHT22;16392;52.508;13.468;2024-02-21T00:53:23;8.30;99.90
8563;DHT22;16392;52.508;13.468;2024-02-21T00:55:49;8.30;99.90
8563;DHT22;16392;52.508;13.468;2024-02-21T00:58:16;8.30;99.90
8563;DHT22;16392;52.508;13.468;2024-02-21T01:00:43;8.30;99.90
8563;DHT22;16392;52.508;13.468;2024-02-21T01:03:09;8.30;99.90
8563;DHT22;16392;52.508;13.468;2024-02-21T01:05:37;8.30;99.90
8563;DHT22;16392;52.508;13.468;2024-02-21T01:08:05;8.30;99.90
8563;DHT22;16392;52.508;13.468;2024-02-21T01:10:32;8.30;99.90
8563;DHT22;16392;52.508;13.468;2024-02-21T01:12:59;8.40;99.90
8563;DHT22;16392;52.508;13.468;2024-02-21T01:15:25;8.40;99.90
8563;DHT22;16392;52.508;13.468;2024-02-21T01:17:53;8.30;99.90
8563;DHT22;16392;52.508;13.468;2024-02-21T01:20:21;8.30;99.90
8563;DHT22;16392;52.508;13.468;2024-02-21T01:22:47;8.40;99.90
8563;DHT22;16392;52.508;13.468;2024-02-21T01:25:15;8.40;99.90
8563;DHT22;16392;52.508;13.468;2024-02-21T01:27:44;8.30;99.90
8563;DHT22;16392;52.508;13.468;2024-02-21T01:30:11;8.40;99.90
8563;DHT22;16392;52.508;13.468;2024-02-21T01:32:38;8.40;99.90
8563;DHT22;16392;52.508;13.468;2024-02-21T01:35:05;8.40;99.90
8563;DHT22;16392;52.508;13.468;2024-02-21T01:37:33;8.50;99.90
8563;DHT22;16392;52.508;13.468;2024-02-21T01:40:00;8.40;99.90
8563;DHT22;16392;52.508;13.468;2024-02-21T01:42:29;8.50;99.90
8563;DHT22;16392;52.508;13.468;2024-02-21T01:44:56;8.50;99.90
8563;DHT22;16392;52.508;13.468;2024-02-21T01:47:23;8.50;99.90
8563;DHT22;16392;52.508;13.468;2024-02-21T01:49:50;8.40;99.90
8563;DHT22;16392;52.508;13.468;2024-02-21T01:52:17;8.50;99.90
8563;DHT22;16392;52.508;13.468;2024-02-21T01:54:46;8.50;99.90
8563;DHT22;16392;52.508;13.468;2024-02-21T01:57:14;8.50;99.90
8563;DHT22;16392;52.508;13.468;2024-02-21T01:59:42;8.50;99.90
8563;DHT22;16392;52.508;13.468;2024-02-21T02:02:09;8.50;99.90
8563;DHT22;16392;52.508;13.468;2024-02-21T02:04:38;8.50;99.90
8563;DHT22;16392;52.508;13.468;2024-02-21T02:07:06;8.50;99.90
8563;DHT22;16392;52.508;13.468;2024-02-21T02:09:34;8.50;99.90
8563;DHT22;16392;52.508;13.468;2024-02-21T02:12:02;8.50;99.90
8563;DHT22;16392;52.508;13.468;2024-02-21T02:14:29;8.50;99.90
8563;DHT22;16392;52.508;13.468;2024-02-21T02:16:57;8.50;99.90
8563;DHT22;16392;52.508;13.468;2024-02-21T02:19:23;8.50;99.90
8563;DHT22;16392;52.508;13.468;2024-02-21T02:21:53;8.50;99.90
8563;DHT22;16392;52.508;13.468;2024-02-21T02:24:24;8.40;99.90
8563;DHT22;16392;52.508;13.468;2024-02-21T02:26:51;8.30;99.90
8563;DHT22;16392;52.508;13.468;2024-02-21T02:29:18;8.20;99.90
8563;DHT22;16392;52.508;13.468;2024-02-21T02:31:46;8.10;99.90
8563;DHT22;16392;52.508;13.468;2024-02-21T02:34:13;8.00;99.90
8563;DHT22;16392;52.508;13.468;2024-02-21T02:36:40;7.90;99.90
8563;DHT22;16392;52.508;13.468;2024-02-21T02:39:07;7.90;99.90
8563;DHT22;16392;52.508;13.468;2024-02-21T02:41:36;7.80;99.90
8563;DHT22;16392;52.508;13.468;2024-02-21T02:44:03;7.80;99.90
8563;DHT22;16392;52.508;13.468;2024-02-21T02:46:30;7.80;99.90
8563;DHT22;16392;52.508;13.468;2024-02-21T02:48:57;7.70;99.90
8563;DHT22;16392;52.508;13.468;2024-02-21T02:51:23;7.70;99.90
8563;DHT22;16392;52.508;13.468;2024-02-21T02:53:50;7.70;99.90
8563;DHT22;16392;52.508;13.468;2024-02-21T02:56:17;7.70;99.90
8563;DHT22;16392;52.508;13.468;2024-02-21T02:58:45;7.60;99.90
8563;DHT22;16392;52.508;13.468;2024-02-21T03:01:11;7.70;99.90
8563;DHT22;16392;52.508;13.468;2024-02-21T03:03:39;7.60;99.90
8563;DHT22;16392;52.508;13.468;2024-02-21T03:06:07;7.60;99.90
8563;DHT22;16392;52.508;13.468;2024-02-21T03:08:35;7.60;99.90
8563;DHT22;16392;52.508;13.468;2024-02-21T03:11:02;7.60;99.90
8563;DHT22;16392;52.508;13.468;2024-02-21T03:13:29;7.60;99.90
8563;DHT22;16392;52.508;13.468;2024-02-21T03:15:57;7.60;99.90
8563;DHT22;16392;52.508;13.468;2024-02-21T03:18:24;7.60;99.90
8563;DHT22;16392;52.508;13.468;2024-02-21T03:20:51;7.60;99.90
8563;DHT22;16392;52.508;13.468;2024-02-21T03:23:17;7.60;99.90
8563;DHT22;16392;52.508;13.468;2024-02-21T03:25:44;7.60;99.90
8563;DHT22;16392;52.508;13.468;2024-02-21T03:28:11;7.60;99.90
8563;DHT22;16392;52.508;13.468;2024-02-21T03:30:40;7.60;99.90
8563;DHT22;16392;52.508;13.468;2024-02-21T03:33:14;7.60;99.90
8563;DHT22;16392;52.508;13.468;2024-02-21T03:35:41;7.60;99.90
8563;DHT22;16392;52.508;13.468;2024-02-21T03:38:08;7.60;99.90
8563;DHT22;16392;52.508;13.468;2024-02-21T03:40:34;7.60;99.90
8563;DHT22;16392;52.508;13.468;2024-02-21T03:43:01;7.60;99.90
8563;DHT22;16392;52.508;13.468;2024-02-21T03:45:28;7.60;99.90
8563;DHT22;16392;52.508;13.468;2024-02-21T03:47:55;7.60;99.90
8563;DHT22;16392;52.508;13.468;2024-02-21T03:50:23;7.60;99.90
8563;DHT22;16392;52.508;13.468;2024-02-21T03:52:51;7.50;99.90
8563;DHT22;16392;52.508;13.468;2024-02-21T03:55:18;7.50;99.90
8563;DHT22;16392;52.508;13.468;2024-02-21T03:57:45;7.60;99.90
8563;DHT22;16392;52.508;13.468;2024-02-21T04:00:12;7.50;99.90
8563;DHT22;16392;52.508;13.468;2024-02-21T04:02:42;7.50;99.90
8563;DHT22;16392;52.508;13.468;2024-02-21T04:05:09;7.50;99.90
8563;DHT22;16392;52.508;13.468;2024-02-21T04:07:39;7.50;99.90
8563;DHT22;16392;52.508;13.468;2024-02-21T04:10:06;7.50;99.90
8563;DHT22;16392;52.508;13.468;2024-02-21T04:12:33;7.50;99.90
8563;DHT22;16392;52.508;13.468;2024-02-21T04:15:00;7.50;99.90
8563;DHT22;16392;52.508;13.468;2024-02-21T04:17:26;7.50;99.90
8563;DHT22;16392;52.508;13.468;2024-02-21T04:20:02;7.50;99.90
8563;DHT22;16392;52.508;13.468;2024-02-21T04:22:31;7.50;99.90
8563;DHT22;16392;52.508;13.468;2024-02-21T04:25:00;7.50;99.90
8563;DHT22;16392;52.508;13.468;2024-02-21T04:27:27;7.50;99.90
8563;DHT22;16392;52.508;13.468;2024-02-21T04:29:54;7.50;99.90
8563;DHT22;16392;52.508;13.468;2024-02-21T04:32:21;7.50;99.90
8563;DHT22;16392;52.508;13.468;2024-02-21T04:34:48;7.50;99.90
8563;DHT22;16392;52.508;13.468;2024-02-21T04:37:15;7.40;99.90
8563;DHT22;16392;52.508;13.468;2024-02-21T04:39:43;7.40;99.90
8563;DHT22;16392;52.508;13.468;2024-02-21T04:42:11;7.40;99.90
8563;DHT22;16392;52.508;13.468;2024-02-21T04:44:38;7.40;99.90
8563;DHT22;16392;52.508;13.468;2024-02-21T04:47:05;7.50;99.90
8563;DHT22;16392;52.508;13.468;2024-02-21T04:49:33;7.40;99.90
8563;DHT22;16392;52.508;13.468;2024-02-21T04:52:00;7.40;99.90
8563;DHT22;16392;52.508;13.468;2024-02-21T04:54:26;7.40;99.90
8563;DHT22;16392;52.508;13.468;2024-02-21T04:56:53;7.40;99.90
8563;DHT22;16392;52.508;13.468;2024-02-21T04:59:21;7.50;99.90
8563;DHT22;16392;52.508;13.468;2024-02-21T05:01:48;7.50;99.90
8563;DHT22;16392;52.508;13.468;2024-02-21T05:04:15;7.50;99.90
8563;DHT22;16392;52.508;13.468;2024-02-21T05:06:42;7.50;99.90
8563;DHT22;16392;52.508;13.468;2024-02-21T05:09:09;7.50;99.90
8563;DHT22;16392;52.508;13.468;2024-02-21T05:11:36;7.50;99.90
8563;DHT22;16392;52.508;13.468;2024-02-21T05:14:04;7.50;99.90
8563;DHT22;16392;52.508;13.468;2024-02-21T05:16:32;7.60;99.90
8563;DHT22;16392;52.508;13.468;2024-02-21T05:18:59;7.60;99.90
8563;DHT22;16392;52.508;13.468;2024-02-21T05:21:26;7.60;99.90
8563;DHT22;16392;52.508;13.468;2024-02-21T05:23:53;7.60;99.90
8563;DHT22;16392;52.508;13.468;2024-02-21T05:26:21;7.60;99.90
8563;DHT22;16392;52.508;13.468;2024-02-21T05:28:48;7.60;99.90
8563;DHT22;16392;52.508;13.468;2024-02-21T05:31:15;7.60;99.90
8563;DHT22;16392;52.508;13.468;2024-02-21T05:33:44;7.60;99.90
8563;DHT22;16392;52.508;13.468;2024-02-21T05:36:10;7.60;99.90
8563;DHT22;16392;52.508;13.468;2024-02-21T05:38:38;7.60;99.90
8563;DHT22;16392;52.508;13.468;2024-02-21T05:41:05;7.60;99.90
8563;DHT22;16392;52.508;13.468;2024-02-21T05:43:33;7.60;99.90
8563;DHT22;16392;52.508;13.468;2024-02-21T05:46:00;7.60;99.90
8563;DHT22;16392;52.508;13.468;2024-02-21T05:48:26;7.70;99.90
8563;DHT22;16392;52.508;13.468;2024-02-21T05:50:55;7.60;99.90
8563;DHT22;16392;52.508;13.468;2024-02-21T05:53:22;7.60;99.90
8563;DHT22;16392;52.508;13.468;2024-02-21T05:55:49;7.70;99.90
8563;DHT22;16392;52.508;13.468;2024-02-21T05:58:15;7.60;99.90
8563;DHT22;16392;52.508;13.468;2024-02-21T06:00:42;7.70;99.90
8563;DHT22;16392;52.508;13.468;2024-02-21T06:03:09;7.60;99.90
8563;DHT22;16392;52.508;13.468;2024-02-21T06:05:37;7.70;99.90
8563;DHT22;16392;52.508;13.468;2024-02-21T06:08:06;7.70;99.90
8563;DHT22;16392;52.508;13.468;2024-02-21T06:10:33;7.70;99.90
8563;DHT22;16392;52.508;13.468;2024-02-21T06:13:00;7.70;99.90
8563;DHT22;16392;52.508;13.468;2024-02-21T06:15:27;7.70;99.90
8563;DHT22;16392;52.508;13.468;2024-02-21T06:17:54;7.70;99.90
8563;DHT22;16392;52.508;13.468;2024-02-21T06:20:21;7.70;99.90
8563;DHT22;16392;52.508;13.468;2024-02-21T06:22:47;7.70;99.90
8563;DHT22;16392;52.508;13.468;2024-02-21T06:25:16;7.70;99.90
8563;DHT22;16392;52.508;13.468;2024-02-21T06:27:43;7.70;99.90
8563;DHT22;16392;52.508;13.468;2024-02-21T06:30:11;7.70;99.90
8563;DHT22;16392;52.508;13.468;2024-02-21T06:32:38;7.70;99.90
8563;DHT22;16392;52.508;13.468;2024-02-21T06:35:05;7.70;99.90
8563;DHT22;16392;52.508;13.468;2024-02-21T06:37:32;7.70;99.90
8563;DHT22;16392;52.508;13.468;2024-02-21T06:39:59;7.80;99.90
8563;DHT22;16392;52.508;13.468;2024-02-21T06:42:28;7.80;99.90
8563;DHT22;16392;52.508;13.468;2024-02-21T06:44:55;7.80;99.90
8563;DHT22;16392;52.508;13.468;2024-02-21T06:47:22;7.80;99.90
8563;DHT22;16392;52.508;13.468;2024-02-21T06:49:49;7.80;99.90
8563;DHT22;16392;52.508;13.468;2024-02-21T06:52:17;7.80;99.90
8563;DHT22;16392;52.508;13.468;2024-02-21T06:54:45;7.80;99.90
8563;DHT22;16392;52.508;13.468;2024-02-21T06:57:13;7.90;99.90
8563;DHT22;16392;52.508;13.468;2024-02-21T06:59:42;7.90;99.90
8563;DHT22;16392;52.508;13.468;2024-02-21T07:02:09;7.90;99.90
8563;DHT22;16392;52.508;13.468;2024-02-21T07:04:36;8.00;99.90
8563;DHT22;16392;52.508;13.468;2024-02-21T07:07:03;8.00;99.90
8563;DHT22;16392;52.508;13.468;2024-02-21T07:09:30;8.00;99.90
8563;DHT22;16392;52.508;13.468;2024-02-21T07:11:59;8.00;99.90
8563;DHT22;16392;52.508;13.468;2024-02-21T07:14:28;8.10;99.90
8563;DHT22;16392;52.508;13.468;2024-02-21T07:16:56;8.10;99.90
8563;DHT22;16392;52.508;13.468;2024-02-21T07:19:25;8.10;99.90
8563;DHT22;16392;52.508;13.468;2024-02-21T07:21:51;8.10;99.90
8563;DHT22;16392;52.508;13.468;2024-02-21T07:24:18;8.10;99.90
8563;DHT22;16392;52.508;13.468;2024-02-21T07:26:45;8.10;99.90
8563;DHT22;16392;52.508;13.468;2024-02-21T07:29:12;8.20;99.90
8563;DHT22;16392;52.508;13.468;2024-02-21T07:31:40;8.10;99.90
8563;DHT22;16392;52.508;13.468;2024-02-21T07:34:09;8.20;99.90
8563;DHT22;16392;52.508;13.468;2024-02-21T07:36:36;8.20;99.90
8563;DHT22;16392;52.508;13.468;2024-02-21T07:39:04;8.20;99.90
8563;DHT22;16392;52.508;13.468;2024-02-21T07:41:31;8.30;99.90
8563;DHT22;16392;52.508;13.468;2024-02-21T07:43:59;8.30;99.90
8563;DHT22;16392;52.508;13.468;2024-02-21T07:46:26;8.40;99.90
8563;DHT22;16392;52.508;13.468;2024-02-21T07:48:53;8.40;99.90
8563;DHT22;16392;52.508;13.468;2024-02-21T07:51:21;8.40;99.90
8563;DHT22;16392;52.508;13.468;2024-02-21T07:53:49;8.40;99.90
8563;DHT22;16392;52.508;13.468;2024-02-21T07:56:16;8.40;99.90
8563;DHT22;16392;52.508;13.468;2024-02-21T07:58:43;8.40;99.90
8563;DHT22;16392;52.508;13.468;2024-02-21T08:01:18;8.40;99.90
8563;DHT22;16392;52.508;13.468;2024-02-21T08:03:45;8.50;99.90
8563;DHT22;16392;52.508;13.468;2024-02-21T08:06:12;8.50;99.90
8563;DHT22;16392;52.508;13.468;2024-02-21T08:08:40;8.50;99.90
8563;DHT22;16392;52.508;13.468;2024-02-21T08:11:07;8.50;99.90
8563;DHT22;16392;52.508;13.468;2024-02-21T08:13:34;8.50;99.90
8563;DHT22;16392;52.508;13.468;2024-02-21T08:16:01;8.50;99.90
8563;DHT22;16392;52.508;13.468;2024-02-21T08:18:28;8.50;99.90
8563;DHT22;16392;52.508;13.468;2024-02-21T08:20:55;8.60;99.90
8563;DHT22;16392;52.508;13.468;2024-02-21T08:23:23;8.60;99.90
8563;DHT22;16392;52.508;13.468;2024-02-21T08:25:51;8.60;99.90
8563;DHT22;16392;52.508;13.468;2024-02-21T08:28:18;8.70;99.90
8563;DHT22;16392;52.508;13.468;2024-02-21T08:30:45;8.70;99.90
8563;DHT22;16392;52.508;13.468;2024-02-21T08:35:40;8.80;99.90
8563;DHT22;16392;52.508;13.468;2024-02-21T08:38:07;8.80;99.90
8563;DHT22;16392;52.508;13.468;2024-02-21T08:40:34;8.90;99.90
8563;DHT22;16392;52.508;13.468;2024-02-21T08:43:03;9.00;99.90
8563;DHT22;16392;52.508;13.468;2024-02-21T08:45:30;9.00;99.90
8563;DHT22;16392;52.508;13.468;2024-02-21T08:47:57;9.10;99.90
8563;DHT22;16392;52.508;13.468;2024-02-21T08:50:24;9.20;99.90
8563;DHT22;16392;52.508;13.468;2024-02-21T08:52:51;9.20;99.90
8563;DHT22;16392;52.508;13.468;2024-02-21T08:55:21;9.30;99.90
8563;DHT22;16392;52.508;13.468;2024-02-21T08:57:48;9.30;99.90
8563;DHT22;16392;52.508;13.468;2024-02-21T09:00:16;9.30;99.90
8563;DHT22;16392;52.508;13.468;2024-02-21T09:02:43;9.40;99.90
8563;DHT22;16392;52.508;13.468;2024-02-21T09:05:11;9.50;99.90
8563;DHT22;16392;52.508;13.468;2024-02-21T09:07:38;9.60;99.90
8563;DHT22;16392;52.508;13.468;2024-02-21T09:10:06;9.60;99.90
8563;DHT22;16392;52.508;13.468;2024-02-21T09:12:33;9.60;99.90
8563;DHT22;16392;52.508;13.468;2024-02-21T09:14:59;9.70;99.90
8563;DHT22;16392;52.508;13.468;2024-02-21T09:17:28;9.80;99.90
8563;DHT22;16392;52.508;13.468;2024-02-21T09:19:55;9.80;99.90
8563;DHT22;16392;52.508;13.468;2024-02-21T09:22:26;9.90;99.90
8563;DHT22;16392;52.508;13.468;2024-02-21T09:24:53;9.90;99.90
8563;DHT22;16392;52.508;13.468;2024-02-21T09:27:20;9.90;99.90
8563;DHT22;16392;52.508;13.468;2024-02-21T09:29:47;10.00;99.90
8563;DHT22;16392;52.508;13.468;2024-02-21T09:32:14;10.20;99.90
8563;DHT22;16392;52.508;13.468;2024-02-21T09:34:42;10.30;99.90
8563;DHT22;16392;52.508;13.468;2024-02-21T09:37:09;10.30;99.90
8563;DHT22;16392;52.508;13.468;2024-02-21T09:39:36;10.40;99.90
8563;DHT22;16392;52.508;13.468;2024-02-21T09:42:06;10.50;99.90
8563;DHT22;16392;52.508;13.468;2024-02-21T09:44:36;10.60;99.90
8563;DHT22;16392;52.508;13.468;2024-02-21T09:47:07;10.60;99.90
8563;DHT22;16392;52.508;13.468;2024-02-21T09:49:37;10.70;99.90
8563;DHT22;16392;52.508;13.468;2024-02-21T09:52:06;10.80;99.90
8563;DHT22;16392;52.508;13.468;2024-02-21T09:54:33;10.90;99.90
8563;DHT22;16392;52.508;13.468;2024-02-21T09:57:00;10.80;99.90
8563;DHT22;16392;52.508;13.468;2024-02-21T09:59:28;10.80;99.90
8563;DHT22;16392;52.508;13.468;2024-02-21T10:01:56;10.90;99.90
8563;DHT22;16392;52.508;13.468;2024-02-21T10:04:33;11.10;99.90
8563;DHT22;16392;52.508;13.468;2024-02-21T10:07:00;11.20;99.90
8563;DHT22;16392;52.508;13.468;2024-02-21T10:09:29;11.30;99.90
8563;DHT22;16392;52.508;13.468;2024-02-21T10:11:56;11.30;99.90
8563;DHT22;16392;52.508;13.468;2024-02-21T10:14:33;11.30;99.90
8563;DHT22;16392;52.508;13.468;2024-02-21T10:17:00;11.10;99.90
8563;DHT22;16392;52.508;13.468;2024-02-21T10:19:28;11.20;99.90
8563;DHT22;16392;52.508;13.468;2024-02-21T10:22:02;11.20;99.90
8563;DHT22;16392;52.508;13.468;2024-02-21T10:24:31;11.10;99.90
8563;DHT22;16392;52.508;13.468;2024-02-21T10:27:00;11.10;99.90
8563;DHT22;16392;52.508;13.468;2024-02-21T10:29:26;11.10;99.90
8563;DHT22;16392;52.508;13.468;2024-02-21T10:32:04;11.20;99.90
8563;DHT22;16392;52.508;13.468;2024-02-21T10:34:32;11.20;99.90
8563;DHT22;16392;52.508;13.468;2024-02-21T10:37:02;11.30;99.90
8563;DHT22;16392;52.508;13.468;2024-02-21T10:39:31;11.30;99.90
8563;DHT22;16392;52.508;13.468;2024-02-21T10:42:00;11.20;99.90
8563;DHT22;16392;52.508;13.468;2024-02-21T10:44:28;11.20;99.90
8563;DHT22;16392;52.508;13.468;2024-02-21T10:46:57;11.30;99.90
8563;DHT22;16392;52.508;13.468;2024-02-21T10:49:25;11.40;99.90
8563;DHT22;16392;52.508;13.468;2024-02-21T10:51:57;11.40;99.90
8563;DHT22;16392;52.508;13.468;2024-02-21T10:54:45;11.50;99.90
8563;DHT22;16392;52.508;13.468;2024-02-21T10:57:16;11.70;99.90
8563;DHT22;16392;52.508;13.468;2024-02-21T10:59:45;11.80;99.90
8563;DHT22;16392;52.508;13.468;2024-02-21T11:02:13;11.70;99.90
8563;DHT22;16392;52.508;13.468;2024-02-21T11:04:40;11.80;99.90
8563;DHT22;16392;52.508;13.468;2024-02-21T11:07:08;11.80;99.90
8563;DHT22;16392;52.508;13.468;2024-02-21T11:09:36;11.70;99.90
8563;DHT22;16392;52.508;13.468;2024-02-21T11:12:05;11.60;99.90
8563;DHT22;16392;52.508;13.468;2024-02-21T11:14:33;11.40;99.90
8563;DHT22;16392;52.508;13.468;2024-02-21T11:17:14;11.20;99.90
8563;DHT22;16392;52.508;13.468;2024-02-21T11:19:41;11.30;99.90
8563;DHT22;16392;52.508;13.468;2024-02-21T11:22:14;11.50;99.90
8563;DHT22;16392;52.508;13.468;2024-02-21T11:24:43;12.10;99.90
8563;DHT22;16392;52.508;13.468;2024-02-21T11:27:13;13.00;99.90
8563;DHT22;16392;52.508;13.468;2024-02-21T11:29:42;14.30;99.90
8563;DHT22;16392;52.508;13.468;2024-02-21T11:32:10;14.50;99.90
8563;DHT22;16392;52.508;13.468;2024-02-21T11:34:37;14.00;99.90
8563;DHT22;16392;52.508;13.468;2024-02-21T11:37:13;13.70;99.90
8563;DHT22;16392;52.508;13.468;2024-02-21T11:39:41;13.80;99.90
8563;DHT22;16392;52.508;13.468;2024-02-21T11:42:08;13.50;99.90
8563;DHT22;16392;52.508;13.468;2024-02-21T11:44:38;14.20;99.90
8563;DHT22;16392;52.508;13.468;2024-02-21T11:47:05;15.10;99.90
8563;DHT22;16392;52.508;13.468;2024-02-21T11:49:36;15.70;99.90
8563;DHT22;16392;52.508;13.468;2024-02-21T11:52:04;16.20;1.00
8563;DHT22;16392;52.508;13.468;2024-02-21T11:54:31;15.50;99.90
8563;DHT22;16392;52.508;13.468;2024-02-21T11:56:58;14.60;1.00
8563;DHT22;16392;52.508;13.468;2024-02-21T11:59:25;14.60;14.10
8563;DHT22;16392;52.508;13.468;2024-02-21T12:01:53;14.70;22.50
8563;DHT22;16392;52.508;13.468;2024-02-21T12:04:20;15.70;1.00
8563;DHT22;16392;52.508;13.468;2024-02-21T12:06:52;16.00;1.00
8563;DHT22;16392;52.508;13.468;2024-02-21T12:09:22;16.10;99.90
8563;DHT22;16392;52.508;13.468;2024-02-21T12:11:57;17.50;99.90
8563;DHT22;16392;52.508;13.468;2024-02-21T12:14:25;18.10;99.90
8563;DHT22;16392;52.508;13.468;2024-02-21T12:16:54;18.20;1.00
8563;DHT22;16392;52.508;13.468;2024-02-21T12:19:21;17.70;1.00
8563;DHT22;16392;52.508;13.468;2024-02-21T12:21:49;16.50;1.00
8563;DHT22;16392;52.508;13.468;2024-02-21T12:24:21;15.90;1.00
8563;DHT22;16392;52.508;13.468;2024-02-21T12:26:48;15.50;99.90
8563;DHT22;16392;52.508;13.468;2024-02-21T12:29:15;15.30;1.00
8563;DHT22;16392;52.508;13.468;2024-02-21T12:31:41;15.40;1.00
8563;DHT22;16392;52.508;13.468;2024-02-21T12:34:09;15.30;1.00
8563;DHT22;16392;52.508;13.468;2024-02-21T12:36:41;15.20;1.00
8563;DHT22;16392;52.508;13.468;2024-02-21T12:39:09;16.30;1.00
8563;DHT22;16392;52.508;13.468;2024-02-21T12:41:36;18.70;99.90
8563;DHT22;16392;52.508;13.468;2024-02-21T12:44:04;19.60;1.00
8563;DHT22;16392;52.508;13.468;2024-02-21T12:46:32;18.30;1.00
8563;DHT22;16392;52.508;13.468;2024-02-21T12:48:59;17.60;99.90
8563;DHT22;16392;52.508;13.468;2024-02-21T12:51:27;16.50;1.00
8563;DHT22;16392;52.508;13.468;2024-02-21T12:53:55;16.70;1.00
8563;DHT22;16392;52.508;13.468;2024-02-21T12:56:23;15.60;1.00
8563;DHT22;16392;52.508;13.468;2024-02-21T12:58:51;14.80;99.90
8563;DHT22;16392;52.508;13.468;2024-02-21T13:01:19;15.20;99.90
8563;DHT22;16392;52.508;13.468;2024-02-21T13:03:46;16.80;26.40
8563;DHT22;16392;52.508;13.468;2024-02-21T13:06:13;17.50;99.90
8563;DHT22;16392;52.508;13.468;2024-02-21T13:08:43;17.20;99.90
8563;DHT22;16392;52.508;13.468;2024-02-21T13:11:10;15.90;1.00
8563;DHT22;16392;52.508;13.468;2024-02-21T13:13:39;15.00;1.00
8563;DHT22;16392;52.508;13.468;2024-02-21T13:16:06;14.70;99.90
8563;DHT22;16392;52.508;13.468;2024-02-21T13:18:35;14.50;1.00
8563;DHT22;16392;52.508;13.468;2024-02-21T13:21:04;14.20;99.90
8563;DHT22;16392;52.508;13.468;2024-02-21T13:23:31;14.10;28.20
8563;DHT22;16392;52.508;13.468;2024-02-21T13:26:01;14.00;1.00
8563;DHT22;16392;52.508;13.468;2024-02-21T13:28:29;13.90;1.90
8563;DHT22;16392;52.508;13.468;2024-02-21T13:30:56;13.80;1.00
8563;DHT22;16392;52.508;13.468;2024-02-21T13:33:23;13.60;1.00
8563;DHT22;16392;52.508;13.468;2024-02-21T13:35:50;13.30;99.90
8563;DHT22;16392;52.508;13.468;2024-02-21T13:38:17;13.10;7.60
8563;DHT22;16392;52.508;13.468;2024-02-21T13:40:44;13.10;99.90
8563;DHT22;16392;52.508;13.468;2024-02-21T13:43:13;12.90;99.90
8563;DHT22;16392;52.508;13.468;2024-02-21T13:45:40;12.70;1.00
8563;DHT22;16392;52.508;13.468;2024-02-21T13:48:09;12.60;1.00
8563;DHT22;16392;52.508;13.468;2024-02-21T13:50:40;12.60;99.90
8563;DHT22;16392;52.508;13.468;2024-02-21T13:53:09;12.40;99.90
8563;DHT22;16392;52.508;13.468;2024-02-21T13:55:36;12.40;99.90
8563;DHT22;16392;52.508;13.468;2024-02-21T13:58:03;12.30;99.90
8563;DHT22;16392;52.508;13.468;2024-02-21T14:00:31;12.20;1.00
8563;DHT22;16392;52.508;13.468;2024-02-21T14:03:01;12.20;1.00
8563;DHT22;16392;52.508;13.468;2024-02-21T14:05:28;12.20;1.00
8563;DHT22;16392;52.508;13.468;2024-02-21T14:07:55;12.20;1.00
8563;DHT22;16392;52.508;13.468;2024-02-21T14:10:22;12.30;1.00
8563;DHT22;16392;52.508;13.468;2024-02-21T14:12:50;12.40;1.00
8563;DHT22;16392;52.508;13.468;2024-02-21T14:15:16;12.40;99.90
8563;DHT22;16392;52.508;13.468;2024-02-21T14:17:45;12.40;99.90
8563;DHT22;16392;52.508;13.468;2024-02-21T14:20:11;12.40;99.90
8563;DHT22;16392;52.508;13.468;2024-02-21T14:22:39;12.40;99.90
8563;DHT22;16392;52.508;13.468;2024-02-21T14:25:07;12.30;2.40
8563;DHT22;16392;52.508;13.468;2024-02-21T14:27:33;12.30;99.90
8563;DHT22;16392;52.508;13.468;2024-02-21T14:30:01;12.30;99.90
8563;DHT22;16392;52.508;13.468;2024-02-21T14:32:28;12.30;21.10
8563;DHT22;16392;52.508;13.468;2024-02-21T14:34:57;12.40;38.80
8563;DHT22;16392;52.508;13.468;2024-02-21T14:37:24;12.30;1.00
8563;DHT22;16392;52.508;13.468;2024-02-21T14:39:53;12.20;1.00
8563;DHT22;16392;52.508;13.468;2024-02-21T14:42:20;12.30;99.90
8563;DHT22;16392;52.508;13.468;2024-02-21T14:44:48;12.40;99.90
8563;DHT22;16392;52.508;13.468;2024-02-21T14:47:14;12.40;99.90
8563;DHT22;16392;52.508;13.468;2024-02-21T14:49:41;12.50;23.80
8563;DHT22;16392;52.508;13.468;2024-02-21T14:52:10;12.40;1.00
8563;DHT22;16392;52.508;13.468;2024-02-21T14:54:37;12.30;1.00
8563;DHT22;16392;52.508;13.468;2024-02-21T14:57:06;12.20;63.80
8563;DHT22;16392;52.508;13.468;2024-02-21T14:59:33;12.20;99.90
8563;DHT22;16392;52.508;13.468;2024-02-21T15:02:00;12.10;99.90
8563;DHT22;16392;52.508;13.468;2024-02-21T15:04:27;12.10;99.90
8563;DHT22;16392;52.508;13.468;2024-02-21T15:06:55;12.10;1.00
8563;DHT22;16392;52.508;13.468;2024-02-21T15:09:24;12.00;99.90
8563;DHT22;16392;52.508;13.468;2024-02-21T15:11:51;11.90;1.00
8563;DHT22;16392;52.508;13.468;2024-02-21T15:14:18;11.90;1.00
8563;DHT22;16392;52.508;13.468;2024-02-21T15:16:46;11.90;1.00
8563;DHT22;16392;52.508;13.468;2024-02-21T15:19:18;11.90;1.00
8563;DHT22;16392;52.508;13.468;2024-02-21T15:21:47;11.90;1.00
8563;DHT22;16392;52.508;13.468;2024-02-21T15:24:14;11.90;1.00
8563;DHT22;16392;52.508;13.468;2024-02-21T15:26:43;11.90;1.00
8563;DHT22;16392;52.508;13.468;2024-02-21T15:29:10;11.80;1.00
8563;DHT22;16392;52.508;13.468;2024-02-21T15:31:36;11.80;1.00
8563;DHT22;16392;52.508;13.468;2024-02-21T15:34:04;11.70;1.00
8563;DHT22;16392;52.508;13.468;2024-02-21T15:36:30;11.60;1.00
8563;DHT22;16392;52.508;13.468;2024-02-21T15:38:57;11.50;1.00
8563;DHT22;16392;52.508;13.468;2024-02-21T15:41:25;11.40;1.00
8563;DHT22;16392;52.508;13.468;2024-02-21T15:43:53;11.30;1.00
8563;DHT22;16392;52.508;13.468;2024-02-21T15:46:25;11.20;1.00
8563;DHT22;16392;52.508;13.468;2024-02-21T15:48:52;11.20;1.00